Shoyo Maru — JLOJ — position and weather

sailwx.info

Track history (hours):
 
Tides and Currents Weather Stations Pressure Air Temp Water Temp Dewpoint Dewpoint Depression Visibility Wind Speed Wind Dir Waves Ship Positions

Oceanographic research ship Shoyo Maru (Japan)

Detailed information on ship capabilities available from University of Delaware's Ocean Information Center.

Last reported at 2019-Oct-16 04:47 UTC. Time now 2019-Oct-23 00:40 UTC.
Position N 35°08' E 139°45'.

Length 87.6 m; beam 14 m.

Type: Other ship. MMSI: 431465000.

Date/timePositionNaut miles runAvg speedWind from/ knotsBaromVisibWave heightAir tempDewpointWater temp
2019-Oct-16 04:47N 35°08' E 139°45'415.7
2019-Oct-16 04:30N 35°12' E 139°46'612.2
2019-Oct-16 04:00N 35°18' E 139°44'613.0
2019-Oct-16 03:30N 35°24' E 139°43'815.3
2019-Oct-16 03:01N 35°29' E 139°50'713.2
2019-Oct-16 02:30N 35°35' E 139°47'4 7.1
2019-Oct-16 02:00N 35°39' E 139°46'0 0.1
2019-Oct-16 01:27N 35°39' E 139°46'0 0.0
2019-Oct-16 00:57N 35°39' E 139°46'  
2019-Oct-13 02:23N 35°39' E 139°46'0 1.0
2019-Oct-13 02:00N 35°39' E 139°46'4 8.8
2019-Oct-13 01:30N 35°35' E 139°48'5 9.5
2019-Oct-13 01:00N 35°32' E 139°53'5 9.0
2019-Oct-13 00:30N 35°32' E 139°59'1 1.6
2019-Oct-12 23:56N 35°33' E 139°60'0 0.0
2019-Oct-12 23:26N 35°33' E 139°60'0 0.0
2019-Oct-12 22:53N 35°33' E 139°60'0 0.0
2019-Oct-12 22:29N 35°33' E 139°60'0 0.0
2019-Oct-12 21:56N 35°33' E 139°60'0 0.0
2019-Oct-12 21:20N 35°33' E 139°60'0 0.0
2019-Oct-12 20:56N 35°33' E 139°60'0 0.0
2019-Oct-12 20:29N 35°33' E 139°60'0 0.0
2019-Oct-12 19:59N 35°33' E 139°60'0 0.0
2019-Oct-12 19:29N 35°33' E 139°60'0 0.1
2019-Oct-12 18:59N 35°33' E 139°60'0 0.0
2019-Oct-12 18:23N 35°33' E 139°60'0 0.0
2019-Oct-12 17:59N 35°33' E 139°60'0 0.1
2019-Oct-12 17:29N 35°33' E 139°60'0 0.0
2019-Oct-12 16:59N 35°33' E 139°60'0 0.0
2019-Oct-12 16:29N 35°33' E 139°60'0 0.0
2019-Oct-12 15:59N 35°33' E 139°60'0 0.0
2019-Oct-12 14:59N 35°33' E 139°60'0 0.1
2019-Oct-12 14:29N 35°33' E 139°60'0 0.0
2019-Oct-12 13:56N 35°33' E 139°60'0 0.0
2019-Oct-12 10:17N 35°33' E 139°60'0 0.0
2019-Oct-12 09:17N 35°33' E 139°60'0 0.0
2019-Oct-12 08:53N 35°33' E 139°60'0 0.1
2019-Oct-12 08:23N 35°33' E 139°60'0 0.1
2019-Oct-12 07:59N 35°33' E 139°60'0 0.0
2019-Oct-12 07:05N 35°33' E 139°60'0 0.0
2019-Oct-12 06:41N 35°33' E 139°60'0 0.0
2019-Oct-12 06:11N 35°33' E 139°60'0 0.0
2019-Oct-12 05:41N 35°33' E 139°60'0 0.0
2019-Oct-12 05:26N 35°33' E 139°60'0 0.0
2019-Oct-12 04:56N 35°33' E 139°60'0 0.0
2019-Oct-12 04:29N 35°33' E 139°60'0 0.0
2019-Oct-12 03:59N 35°33' E 139°60'0 0.0
2019-Oct-12 03:23N 35°33' E 139°60'0 0.0
2019-Oct-12 02:59N 35°33' E 139°60'0 0.0
2019-Oct-12 02:29N 35°33' E 139°60'0 0.0
2019-Oct-12 02:00N 35°33' E 139°60'2 3.2
2019-Oct-12 01:30N 35°32' E 139°58'5 9.3
2019-Oct-12 01:00N 35°32' E 139°52'4 8.2
2019-Oct-12 00:30N 35°35' E 139°48'5 9.0
2019-Oct-12 00:00N 35°39' E 139°46'0 0.1
2019-Oct-11 23:30N 35°39' E 139°46'  
Track history (hours):
 
Tides and Currents Weather Stations Pressure Air Temp Water Temp Dewpoint Dewpoint Depression Visibility Wind Speed Wind Dir Waves Ship Positions

Oceanographic research ship Shoyo Maru (Japan)

Detailed information on ship capabilities available from University of Delaware's Ocean Information Center.

Last reported at 2019-Oct-16 04:47 UTC. Time now 2019-Oct-23 00:40 UTC.
Position N 35°08' E 139°45'.

Length 87.6 m; beam 14 m.

Type: Other ship. MMSI: 431465000.

Date/timePositionNaut miles runAvg speedWind from/ knotsBaromVisibWave heightAir tempDewpointWater temp
2019-Oct-16 04:47N 35°08' E 139°45'415.7
2019-Oct-16 04:30N 35°12' E 139°46'612.2
2019-Oct-16 04:00N 35°18' E 139°44'613.0
2019-Oct-16 03:30N 35°24' E 139°43'815.3
2019-Oct-16 03:01N 35°29' E 139°50'713.2
2019-Oct-16 02:30N 35°35' E 139°47'4 7.1
2019-Oct-16 02:00N 35°39' E 139°46'0 0.1
2019-Oct-16 01:27N 35°39' E 139°46'0 0.0
2019-Oct-16 00:57N 35°39' E 139°46'  
2019-Oct-13 02:23N 35°39' E 139°46'0 1.0
2019-Oct-13 02:00N 35°39' E 139°46'4 8.8
2019-Oct-13 01:30N 35°35' E 139°48'5 9.5
2019-Oct-13 01:00N 35°32' E 139°53'5 9.0
2019-Oct-13 00:30N 35°32' E 139°59'1 1.6
2019-Oct-12 23:56N 35°33' E 139°60'0 0.0
2019-Oct-12 23:26N 35°33' E 139°60'0 0.0
2019-Oct-12 22:53N 35°33' E 139°60'0 0.0
2019-Oct-12 22:29N 35°33' E 139°60'0 0.0
2019-Oct-12 21:56N 35°33' E 139°60'0 0.0
2019-Oct-12 21:20N 35°33' E 139°60'0 0.0
2019-Oct-12 20:56N 35°33' E 139°60'0 0.0
2019-Oct-12 20:29N 35°33' E 139°60'0 0.0
2019-Oct-12 19:59N 35°33' E 139°60'0 0.0
2019-Oct-12 19:29N 35°33' E 139°60'0 0.1
2019-Oct-12 18:59N 35°33' E 139°60'0 0.0
2019-Oct-12 18:23N 35°33' E 139°60'0 0.0
2019-Oct-12 17:59N 35°33' E 139°60'0 0.1
2019-Oct-12 17:29N 35°33' E 139°60'0 0.0
2019-Oct-12 16:59N 35°33' E 139°60'0 0.0
2019-Oct-12 16:29N 35°33' E 139°60'0 0.0
2019-Oct-12 15:59N 35°33' E 139°60'0 0.0
2019-Oct-12 14:59N 35°33' E 139°60'0 0.1
2019-Oct-12 14:29N 35°33' E 139°60'0 0.0
2019-Oct-12 13:56N 35°33' E 139°60'0 0.0
2019-Oct-12 10:17N 35°33' E 139°60'0 0.0
2019-Oct-12 09:17N 35°33' E 139°60'0 0.0
2019-Oct-12 08:53N 35°33' E 139°60'0 0.1
2019-Oct-12 08:23N 35°33' E 139°60'0 0.1
2019-Oct-12 07:59N 35°33' E 139°60'0 0.0
2019-Oct-12 07:05N 35°33' E 139°60'0 0.0
2019-Oct-12 06:41N 35°33' E 139°60'0 0.0
2019-Oct-12 06:11N 35°33' E 139°60'0 0.0
2019-Oct-12 05:41N 35°33' E 139°60'0 0.0
2019-Oct-12 05:26N 35°33' E 139°60'0 0.0
2019-Oct-12 04:56N 35°33' E 139°60'0 0.0
2019-Oct-12 04:29N 35°33' E 139°60'0 0.0
2019-Oct-12 03:59N 35°33' E 139°60'0 0.0
2019-Oct-12 03:23N 35°33' E 139°60'0 0.0
2019-Oct-12 02:59N 35°33' E 139°60'0 0.0
2019-Oct-12 02:29N 35°33' E 139°60'0 0.0
2019-Oct-12 02:00N 35°33' E 139°60'2 3.2
2019-Oct-12 01:30N 35°32' E 139°58'5 9.3
2019-Oct-12 01:00N 35°32' E 139°52'4 8.2
2019-Oct-12 00:30N 35°35' E 139°48'5 9.0
2019-Oct-12 00:00N 35°39' E 139°46'0 0.1
2019-Oct-11 23:30N 35°39' E 139°46'  

Dump ship's entire track history